createdAt,value
2018-07-21T00:00:51.276Z,19.80
2018-07-21T00:03:23.005Z,19.80
2018-07-21T00:05:51.020Z,19.80
2018-07-21T00:08:18.978Z,19.80
2018-07-21T00:10:46.948Z,19.80
2018-07-21T00:13:15.800Z,19.80
2018-07-21T00:15:44.077Z,19.80
2018-07-21T00:18:13.322Z,19.70
2018-07-21T00:20:42.534Z,19.70
2018-07-21T00:23:12.148Z,19.80
2018-07-21T00:25:41.715Z,19.70
2018-07-21T00:28:10.675Z,19.60
2018-07-21T00:30:38.635Z,19.80
2018-07-21T00:33:06.658Z,19.70
2018-07-21T00:35:35.243Z,19.70
2018-07-21T00:38:04.036Z,19.70
2018-07-21T00:40:32.633Z,19.70
2018-07-21T00:43:01.077Z,19.60
2018-07-21T00:45:29.330Z,19.60
2018-07-21T00:47:58.042Z,19.60
2018-07-21T00:50:26.175Z,19.60
2018-07-21T00:53:00.170Z,19.60
2018-07-21T00:55:29.925Z,19.50
2018-07-21T00:57:59.016Z,19.50
2018-07-21T01:00:27.024Z,19.40
2018-07-21T01:02:54.972Z,19.40
2018-07-21T01:05:22.890Z,19.40
2018-07-21T01:07:50.826Z,19.40
2018-07-21T01:10:18.793Z,19.30
2018-07-21T01:12:46.706Z,19.30
2018-07-21T01:15:14.646Z,19.20
2018-07-21T01:17:42.572Z,19.20
2018-07-21T01:20:10.501Z,19.20
2018-07-21T01:22:38.465Z,19.20
2018-07-21T01:25:06.540Z,19.10
2018-07-21T01:27:34.498Z,19.00
2018-07-21T01:30:02.428Z,19.00
2018-07-21T01:32:30.343Z,18.80
2018-07-21T01:34:58.308Z,18.90
2018-07-21T01:37:26.230Z,19.10
2018-07-21T01:39:54.178Z,19.00
2018-07-21T01:42:22.207Z,19.00
2018-07-21T01:44:50.123Z,18.90
2018-07-21T01:47:18.128Z,19.00
2018-07-21T01:49:46.064Z,18.80
2018-07-21T01:52:14.021Z,18.90
2018-07-21T01:54:43.423Z,18.60
2018-07-21T01:57:12.853Z,18.70
2018-07-21T01:59:41.537Z,18.80
2018-07-21T02:02:09.468Z,18.80
2018-07-21T02:04:37.431Z,18.60
2018-07-21T02:07:05.522Z,18.70
2018-07-21T02:09:33.492Z,18.50
2018-07-21T02:12:01.455Z,18.60
2018-07-21T02:14:29.378Z,18.60
2018-07-21T02:16:57.323Z,18.70
2018-07-21T02:19:25.241Z,18.60
2018-07-21T02:21:53.204Z,18.50
2018-07-21T02:24:21.170Z,18.60
2018-07-21T02:26:49.139Z,18.70
2018-07-21T02:29:17.108Z,18.70
2018-07-21T02:31:45.030Z,18.60
2018-07-21T02:34:13.035Z,18.60
2018-07-21T02:36:40.966Z,18.70
2018-07-21T02:39:10.520Z,18.70
2018-07-21T02:41:38.549Z,18.60
2018-07-21T02:44:06.504Z,18.60
2018-07-21T02:46:34.474Z,18.60
2018-07-21T02:49:02.420Z,18.60
2018-07-21T02:51:30.369Z,18.40
2018-07-21T02:53:58.373Z,18.40
2018-07-21T02:56:26.286Z,18.40
2018-07-21T02:58:54.237Z,18.40
2018-07-21T03:01:22.163Z,18.30
2018-07-21T03:03:50.107Z,18.30
2018-07-21T03:06:18.051Z,18.30
2018-07-21T03:08:46.021Z,18.50
2018-07-21T03:11:13.980Z,18.50
2018-07-21T03:13:41.942Z,18.40
2018-07-21T03:16:09.890Z,18.30
2018-07-21T03:18:37.804Z,18.30
2018-07-21T03:21:05.745Z,18.20
2018-07-21T03:23:33.796Z,18.30
2018-07-21T03:26:01.841Z,18.20
2018-07-21T03:28:29.825Z,18.20
2018-07-21T03:30:57.837Z,18.20
2018-07-21T03:33:25.711Z,18.20
2018-07-21T03:35:53.649Z,18.20
2018-07-21T03:38:21.605Z,18.10
2018-07-21T03:40:49.525Z,18.20
2018-07-21T03:43:17.454Z,18.20
2018-07-21T03:45:45.564Z,18.10
2018-07-21T03:48:13.497Z,18.10
2018-07-21T03:50:41.458Z,18.10
2018-07-21T03:53:09.369Z,18.10
2018-07-21T03:55:37.321Z,18.20
2018-07-21T03:58:05.359Z,18.30
2018-07-21T04:00:33.298Z,18.30
2018-07-21T04:03:01.224Z,18.20
2018-07-21T04:05:29.191Z,18.20
2018-07-21T04:07:57.109Z,18.20
2018-07-21T04:10:25.104Z,18.00
2018-07-21T04:12:53.094Z,18.10
2018-07-21T04:15:21.028Z,18.20
2018-07-21T04:17:48.972Z,18.20
2018-07-21T04:20:16.916Z,18.20
2018-07-21T04:22:44.913Z,18.10
2018-07-21T04:25:12.913Z,18.00
2018-07-21T04:27:40.821Z,18.10
2018-07-21T04:30:08.787Z,18.20
2018-07-21T04:32:36.722Z,18.20
2018-07-21T04:35:04.794Z,18.20
2018-07-21T04:37:32.719Z,18.20
2018-07-21T04:40:00.677Z,18.20
2018-07-21T04:42:28.637Z,18.20
2018-07-21T04:44:56.624Z,18.10
2018-07-21T04:47:24.623Z,18.10
2018-07-21T04:49:52.563Z,18.20
2018-07-21T04:52:20.493Z,18.20
2018-07-21T04:54:48.467Z,18.10
2018-07-21T04:57:16.398Z,18.10
2018-07-21T04:59:44.386Z,18.00
2018-07-21T05:02:12.349Z,18.10
2018-07-21T05:04:40.284Z,18.10
2018-07-21T05:07:08.249Z,18.20
2018-07-21T05:09:36.195Z,18.00
2018-07-21T05:12:04.174Z,18.10
2018-07-21T05:14:32.155Z,18.20
2018-07-21T05:17:00.119Z,18.20
2018-07-21T05:19:28.086Z,18.10
2018-07-21T05:21:56.065Z,18.20
2018-07-21T05:24:24.022Z,18.10
2018-07-21T05:26:51.937Z,18.10
2018-07-21T05:29:19.867Z,18.20
2018-07-21T05:31:47.814Z,18.30
2018-07-21T05:34:15.792Z,18.20
2018-07-21T05:36:43.753Z,18.30
2018-07-21T05:39:11.826Z,18.40
2018-07-21T05:41:40.485Z,18.50
2018-07-21T05:44:08.415Z,18.40
2018-07-21T05:46:36.537Z,18.50
2018-07-21T05:49:04.497Z,18.50
2018-07-21T05:51:32.493Z,18.50
2018-07-21T05:54:00.427Z,18.50
2018-07-21T05:56:28.423Z,18.60
2018-07-21T05:58:56.514Z,18.60
2018-07-21T06:01:24.429Z,18.60
2018-07-21T06:03:52.417Z,18.70
2018-07-21T06:06:20.371Z,18.70
2018-07-21T06:08:48.332Z,18.70
2018-07-21T06:11:16.285Z,18.70
2018-07-21T06:13:44.232Z,18.80
2018-07-21T06:16:12.219Z,18.90
2018-07-21T06:18:40.185Z,18.90
2018-07-21T06:21:08.123Z,19.00
2018-07-21T06:23:36.040Z,19.10
2018-07-21T06:26:04.150Z,19.00
2018-07-21T06:28:32.117Z,19.10
2018-07-21T06:31:00.084Z,19.20
2018-07-21T06:33:28.046Z,19.40
2018-07-21T06:35:56.000Z,19.60
2018-07-21T06:38:24.002Z,19.50
2018-07-21T06:40:51.907Z,19.60
2018-07-21T06:43:19.849Z,19.60
2018-07-21T06:45:47.804Z,19.50
2018-07-21T06:48:15.730Z,19.70
2018-07-21T06:50:43.694Z,19.70
2018-07-21T06:53:11.622Z,19.90
2018-07-21T06:55:39.551Z,19.90
2018-07-21T06:58:07.556Z,19.80
2018-07-21T07:00:35.487Z,19.70
2018-07-21T07:03:03.469Z,19.80
2018-07-21T07:05:31.379Z,19.70
2018-07-21T07:07:59.343Z,19.70
2018-07-21T07:10:27.279Z,19.90
2018-07-21T07:12:55.199Z,19.80
2018-07-21T07:15:23.148Z,19.90
2018-07-21T07:17:51.080Z,20.00
2018-07-21T07:20:19.028Z,20.00
2018-07-21T07:22:46.955Z,20.00
2018-07-21T07:25:14.881Z,19.90
2018-07-21T07:27:42.831Z,20.00
2018-07-21T07:30:10.769Z,19.80
2018-07-21T07:32:56.595Z,19.80
2018-07-21T07:35:25.047Z,19.80
2018-07-21T07:38:17.442Z,20.00
2018-07-21T07:40:46.701Z,19.90
2018-07-21T07:43:14.647Z,19.60
2018-07-21T07:45:42.628Z,20.10
2018-07-21T07:48:10.625Z,19.80
2018-07-21T07:50:38.550Z,19.90
2018-07-21T07:53:06.518Z,19.80
2018-07-21T07:55:34.440Z,19.90
2018-07-21T07:58:03.527Z,19.90
2018-07-21T08:00:31.625Z,19.70
2018-07-21T08:03:00.766Z,19.90
2018-07-21T08:05:28.846Z,19.80
2018-07-21T08:07:56.827Z,20.00
2018-07-21T08:10:25.068Z,20.00
2018-07-21T08:12:53.029Z,20.00
2018-07-21T08:15:21.704Z,19.90
2018-07-21T08:17:50.013Z,19.90
2018-07-21T08:20:18.024Z,19.90
2018-07-21T08:22:46.064Z,19.80
2018-07-21T08:25:14.022Z,19.90
2018-07-21T08:27:41.988Z,20.10
2018-07-21T08:30:11.100Z,20.00
2018-07-21T08:32:39.742Z,20.20
2018-07-21T08:35:07.708Z,20.30
2018-07-21T08:37:36.637Z,20.40
2018-07-21T08:40:05.055Z,20.40
2018-07-21T08:42:33.037Z,20.40
2018-07-21T08:45:01.126Z,20.60
2018-07-21T08:47:29.087Z,20.70
2018-07-21T08:49:57.146Z,20.40
2018-07-21T08:52:25.088Z,20.40
2018-07-21T08:54:53.026Z,20.70
2018-07-21T08:57:20.966Z,20.30
2018-07-21T08:59:48.962Z,20.30
2018-07-21T09:02:16.944Z,20.40
2018-07-21T09:04:44.877Z,20.10
2018-07-21T09:07:12.892Z,20.30
2018-07-21T09:09:40.820Z,20.50
2018-07-21T09:12:08.765Z,20.50
2018-07-21T09:14:36.745Z,21.00
2018-07-21T09:17:04.754Z,20.80
2018-07-21T09:19:32.728Z,21.10
2018-07-21T09:22:00.646Z,21.20
2018-07-21T09:24:28.647Z,20.60
2018-07-21T09:26:56.574Z,20.90
2018-07-21T09:29:24.576Z,20.80
2018-07-21T09:31:52.515Z,21.40
2018-07-21T09:34:20.509Z,21.60
2018-07-21T09:36:48.454Z,21.80
2018-07-21T09:39:16.361Z,21.70
2018-07-21T09:41:44.320Z,22.00
2018-07-21T09:44:12.251Z,22.00
2018-07-21T09:46:40.266Z,22.10
2018-07-21T09:49:08.230Z,22.40
2018-07-21T09:51:36.104Z,22.30
2018-07-21T09:54:04.074Z,22.10
2018-07-21T09:56:31.993Z,22.80
2018-07-21T09:58:59.988Z,22.70
2018-07-21T10:01:27.967Z,23.00
2018-07-21T10:03:55.877Z,22.60
2018-07-21T10:06:23.805Z,22.90
2018-07-21T10:08:51.763Z,23.50
2018-07-21T10:11:19.705Z,23.10
2018-07-21T10:13:47.647Z,22.90
2018-07-21T10:16:15.693Z,22.60
2018-07-21T10:18:43.609Z,23.00
2018-07-21T10:21:11.572Z,23.60
2018-07-21T10:23:39.592Z,22.90
2018-07-21T10:26:25.544Z,23.30
2018-07-21T10:29:05.707Z,23.50
2018-07-21T10:31:33.947Z,23.60
2018-07-21T10:34:01.973Z,23.60
2018-07-21T10:36:29.885Z,23.60
2018-07-21T10:38:57.852Z,23.90
2018-07-21T10:41:25.791Z,24.00
2018-07-21T10:43:53.717Z,24.50
2018-07-21T10:46:21.687Z,24.20
2018-07-21T10:48:49.642Z,24.90
2018-07-21T10:51:17.615Z,24.10
2018-07-21T10:53:45.529Z,23.90
2018-07-21T10:56:13.539Z,23.50
2018-07-21T10:58:41.500Z,24.10
2018-07-21T11:01:09.485Z,23.60
2018-07-21T11:03:37.471Z,23.50
2018-07-21T11:06:05.382Z,23.90
2018-07-21T11:08:33.380Z,23.90
2018-07-21T11:11:01.352Z,23.50
2018-07-21T11:13:30.386Z,23.80
2018-07-21T11:15:58.362Z,24.80
2018-07-21T11:18:26.301Z,25.00
2018-07-21T11:20:54.253Z,24.50
2018-07-21T11:23:22.196Z,23.90
2018-07-21T11:25:50.100Z,23.90
2018-07-21T11:28:18.081Z,24.20
2018-07-21T11:30:45.999Z,23.70
2018-07-21T11:33:13.956Z,23.50
2018-07-21T11:35:42.117Z,23.50
2018-07-21T11:38:09.891Z,23.00
2018-07-21T11:40:37.829Z,23.80
2018-07-21T11:43:06.043Z,23.40
2018-07-21T11:45:34.005Z,23.10
2018-07-21T11:48:02.080Z,23.60
2018-07-21T11:50:30.226Z,23.40
2018-07-21T11:52:58.153Z,24.00
2018-07-21T11:55:26.256Z,23.90
2018-07-21T11:57:54.268Z,24.60
2018-07-21T12:00:22.215Z,24.50
2018-07-21T12:02:50.166Z,24.40
2018-07-21T12:05:18.146Z,24.90
2018-07-21T12:07:46.151Z,24.40
2018-07-21T12:10:14.082Z,24.40
2018-07-21T12:12:42.065Z,24.40
2018-07-21T12:15:10.055Z,24.60
2018-07-21T12:17:37.979Z,24.00
2018-07-21T12:20:05.937Z,24.20
2018-07-21T12:22:33.866Z,23.90
2018-07-21T12:25:01.801Z,24.00
2018-07-21T12:27:29.767Z,24.30
2018-07-21T12:29:57.657Z,24.00
2018-07-21T12:32:25.618Z,24.50
2018-07-21T12:34:53.547Z,24.60
2018-07-21T12:37:21.500Z,24.90
2018-07-21T12:39:49.452Z,25.10
2018-07-21T12:42:17.520Z,25.60
2018-07-21T12:44:45.508Z,24.90
2018-07-21T12:47:13.482Z,24.40
2018-07-21T12:49:41.365Z,24.60
2018-07-21T12:52:09.302Z,24.90
2018-07-21T12:54:37.373Z,25.30
2018-07-21T12:57:05.553Z,25.30
2018-07-21T12:59:33.500Z,25.50
2018-07-21T13:02:01.436Z,25.40
2018-07-21T13:04:29.392Z,25.50
2018-07-21T13:06:57.335Z,26.30
2018-07-21T13:09:25.287Z,25.50
2018-07-21T13:11:53.219Z,25.60
2018-07-21T13:14:21.212Z,25.90
2018-07-21T13:16:49.168Z,26.20
2018-07-21T13:19:17.064Z,26.50
2018-07-21T13:21:45.058Z,26.70
2018-07-21T13:24:12.984Z,26.30
2018-07-21T13:26:41.025Z,26.50
2018-07-21T13:29:08.976Z,25.70
2018-07-21T13:31:36.960Z,26.50
2018-07-21T13:34:04.871Z,26.70
2018-07-21T13:36:32.836Z,25.70
2018-07-21T13:39:00.795Z,25.80
2018-07-21T13:41:28.720Z,26.50
2018-07-21T13:43:56.698Z,25.80
2018-07-21T13:46:24.628Z,25.00
2018-07-21T13:48:52.599Z,25.50
2018-07-21T13:51:20.512Z,26.10
2018-07-21T13:53:48.421Z,24.80
2018-07-21T13:56:16.376Z,25.90
2018-07-21T13:58:44.301Z,26.00
2018-07-21T14:01:12.318Z,25.80
2018-07-21T14:03:40.264Z,24.50
2018-07-21T14:06:08.185Z,24.60
2018-07-21T14:08:36.162Z,26.10
2018-07-21T14:11:04.127Z,25.30
2018-07-21T14:13:32.091Z,24.80
2018-07-21T14:16:00.113Z,24.30
2018-07-21T14:18:27.913Z,24.50
2018-07-21T14:20:55.886Z,24.50
2018-07-21T14:23:23.821Z,24.60
2018-07-21T14:25:51.786Z,24.40
2018-07-21T14:28:19.710Z,24.10
2018-07-21T14:30:47.656Z,23.80
2018-07-21T14:33:15.598Z,25.00
2018-07-21T14:35:43.580Z,24.00
2018-07-21T14:38:11.482Z,24.30
2018-07-21T14:40:39.441Z,23.80
2018-07-21T14:43:07.394Z,23.90
2018-07-21T14:45:35.368Z,24.20
2018-07-21T14:48:03.340Z,23.60
2018-07-21T14:50:31.378Z,25.00
2018-07-21T14:52:59.326Z,24.50
2018-07-21T14:55:27.381Z,24.40
2018-07-21T14:57:55.215Z,25.00
2018-07-21T15:00:23.273Z,25.60
2018-07-21T15:02:51.233Z,24.80
2018-07-21T15:05:19.212Z,24.00
2018-07-21T15:07:47.154Z,24.00
2018-07-21T15:10:15.129Z,24.00
2018-07-21T15:12:43.084Z,23.60
2018-07-21T15:15:11.040Z,23.10
2018-07-21T15:17:38.959Z,22.90
2018-07-21T15:20:07.261Z,22.90
2018-07-21T15:22:35.203Z,23.10
2018-07-21T15:25:03.185Z,22.50
2018-07-21T15:27:31.145Z,23.20
2018-07-21T15:29:59.077Z,23.20
2018-07-21T15:32:27.001Z,22.60
2018-07-21T15:34:54.942Z,22.50
2018-07-21T15:37:22.886Z,22.80
2018-07-21T15:39:50.878Z,22.70
2018-07-21T15:42:18.763Z,22.30
2018-07-21T15:44:46.687Z,22.60
2018-07-21T15:47:14.648Z,22.60
2018-07-21T15:49:42.572Z,22.50
2018-07-21T15:52:10.534Z,22.40
2018-07-21T15:54:38.464Z,22.30
2018-07-21T15:57:06.372Z,22.20
2018-07-21T15:59:34.334Z,22.60
2018-07-21T16:02:02.303Z,21.80
2018-07-21T16:04:30.248Z,22.00
2018-07-21T16:06:58.192Z,22.10
2018-07-21T16:09:26.208Z,22.10
2018-07-21T16:11:54.172Z,22.10
2018-07-21T16:14:22.089Z,22.30
2018-07-21T16:16:50.052Z,22.10
2018-07-21T16:19:17.976Z,22.30
2018-07-21T16:21:45.885Z,22.20
2018-07-21T16:24:13.860Z,22.00
2018-07-21T16:26:41.786Z,22.10
2018-07-21T16:29:09.849Z,22.20
2018-07-21T16:31:37.778Z,22.30
2018-07-21T16:34:05.693Z,21.80
2018-07-21T16:36:33.653Z,22.00
2018-07-21T16:39:01.584Z,21.90
2018-07-21T16:41:29.578Z,21.90
2018-07-21T16:43:57.550Z,21.80
2018-07-21T16:46:25.504Z,21.70
2018-07-21T16:48:53.465Z,21.90
2018-07-21T16:51:21.408Z,21.90
2018-07-21T16:55:27.088Z,21.30
2018-07-21T16:57:55.012Z,21.20
2018-07-21T17:00:22.954Z,20.90
2018-07-21T17:02:50.932Z,21.30
2018-07-21T17:05:18.868Z,21.30
2018-07-21T17:07:46.828Z,21.20
2018-07-21T17:10:14.762Z,21.30
2018-07-21T17:12:42.705Z,20.90
2018-07-21T17:15:10.609Z,20.70
2018-07-21T17:17:38.535Z,20.60
2018-07-21T17:20:06.493Z,20.60
2018-07-21T17:22:34.440Z,20.60
2018-07-21T17:25:02.444Z,20.50
2018-07-21T17:27:30.406Z,20.90
2018-07-21T17:29:58.494Z,20.70
2018-07-21T17:32:26.437Z,20.80
2018-07-21T17:34:54.358Z,20.50
2018-07-21T17:37:22.306Z,20.60
2018-07-21T17:39:50.272Z,20.60
2018-07-21T17:42:18.356Z,20.20
2018-07-21T17:44:46.369Z,20.20
2018-07-21T17:47:14.266Z,20.20
2018-07-21T17:49:42.242Z,19.80
2018-07-21T17:52:10.304Z,19.60
2018-07-21T17:54:38.234Z,19.50
2018-07-21T17:57:06.345Z,19.30
2018-07-21T17:59:34.290Z,19.20
2018-07-21T18:02:02.288Z,19.00
2018-07-21T18:04:30.246Z,19.00
2018-07-21T18:06:58.225Z,18.90
2018-07-21T18:09:26.158Z,18.90
2018-07-21T18:11:54.140Z,19.00
2018-07-21T18:14:22.099Z,19.10
2018-07-21T18:16:50.051Z,18.90
2018-07-21T18:19:18.010Z,18.90
2018-07-21T18:21:46.012Z,19.30
2018-07-21T18:24:13.965Z,18.90
2018-07-21T18:26:41.923Z,18.90
2018-07-21T18:29:09.913Z,18.80
2018-07-21T18:31:38.006Z,18.70
2018-07-21T18:34:06.466Z,18.60
2018-07-21T18:36:34.427Z,18.70
2018-07-21T18:39:02.476Z,18.70
2018-07-21T18:41:30.480Z,18.60
2018-07-21T18:43:58.450Z,18.50
2018-07-21T18:46:26.406Z,18.50
2018-07-21T18:48:54.341Z,18.40
2018-07-21T18:51:22.304Z,18.60
2018-07-21T18:53:50.311Z,18.50
2018-07-21T18:56:18.267Z,18.50
2018-07-21T18:58:46.279Z,18.40
2018-07-21T19:01:14.357Z,18.20
2018-07-21T19:03:42.339Z,18.20
2018-07-21T19:06:10.399Z,18.30
2018-07-21T19:08:56.678Z,18.30
2018-07-21T19:11:24.629Z,18.20
2018-07-21T19:13:52.615Z,18.10
2018-07-21T19:16:40.173Z,18.30
2018-07-21T19:19:09.376Z,18.30
2018-07-21T19:21:40.645Z,18.40
2018-07-21T19:24:08.602Z,18.20
2018-07-21T19:26:54.723Z,18.20
2018-07-21T19:29:22.693Z,18.10
2018-07-21T19:32:09.229Z,18.20
2018-07-21T19:34:37.558Z,18.10
2018-07-21T19:37:25.062Z,18.00
2018-07-21T19:39:53.154Z,18.00
2018-07-21T19:42:21.060Z,18.00
2018-07-21T19:44:49.022Z,18.00
2018-07-21T19:47:17.070Z,18.00
2018-07-21T19:49:44.993Z,17.90
2018-07-21T19:52:12.928Z,17.90
2018-07-21T19:54:43.156Z,17.90
2018-07-21T19:57:11.142Z,17.90
2018-07-21T19:59:39.180Z,17.90
2018-07-21T20:02:07.153Z,17.90
2018-07-21T20:04:35.130Z,17.80
2018-07-21T20:07:03.165Z,17.80
2018-07-21T20:09:31.166Z,17.80
2018-07-21T20:11:59.120Z,17.80
2018-07-21T20:14:27.127Z,17.80
2018-07-21T20:16:55.181Z,17.90
2018-07-21T20:19:23.160Z,17.90
2018-07-21T20:21:51.133Z,17.80
2018-07-21T20:24:19.123Z,17.80
2018-07-21T20:26:47.085Z,17.80
2018-07-21T20:29:15.077Z,17.80
2018-07-21T20:31:42.990Z,17.80
2018-07-21T20:34:10.964Z,17.80
2018-07-21T20:36:38.901Z,17.80
2018-07-21T20:39:10.611Z,17.80
2018-07-21T20:41:38.691Z,17.80
2018-07-21T20:44:06.761Z,17.70
2018-07-21T20:46:35.222Z,17.70
2018-07-21T20:49:03.283Z,17.70
2018-07-21T20:51:31.245Z,17.70
2018-07-21T20:53:59.235Z,17.70
2018-07-21T20:56:27.202Z,17.70
2018-07-21T20:58:55.192Z,17.60
2018-07-21T21:01:23.127Z,17.70
2018-07-21T21:03:51.143Z,17.60
2018-07-21T21:06:19.137Z,17.50
2018-07-21T21:08:47.107Z,17.50
2018-07-21T21:11:15.074Z,17.40
2018-07-21T21:13:43.070Z,17.40
2018-07-21T21:16:11.059Z,17.40
2018-07-21T21:18:39.052Z,17.50
2018-07-21T21:21:06.974Z,17.40
2018-07-21T21:23:34.976Z,17.40
2018-07-21T21:26:02.931Z,17.40
2018-07-21T21:28:30.938Z,17.30
2018-07-21T21:30:58.886Z,17.40
2018-07-21T21:33:26.864Z,17.30
2018-07-21T21:35:54.831Z,17.20
2018-07-21T21:38:22.790Z,17.20
2018-07-21T21:40:50.804Z,17.20
2018-07-21T21:43:22.659Z,17.30
2018-07-21T21:45:50.666Z,17.10
2018-07-21T21:48:40.947Z,17.10
2018-07-21T21:51:31.264Z,17.20
2018-07-21T21:54:24.321Z,17.10
2018-07-21T21:56:53.063Z,17.10
2018-07-21T21:59:21.324Z,17.10
2018-07-21T22:01:49.593Z,17.00
2018-07-21T22:04:17.681Z,17.00
2018-07-21T22:06:45.600Z,17.00
2018-07-21T22:09:13.616Z,17.00
2018-07-21T22:11:41.659Z,17.00
2018-07-21T22:14:09.645Z,17.00
2018-07-21T22:16:37.692Z,17.00
2018-07-21T22:19:05.785Z,17.10
2018-07-21T22:21:37.357Z,17.10
2018-07-21T22:24:10.415Z,17.10
2018-07-21T22:26:43.304Z,17.10
2018-07-21T22:29:17.411Z,17.10
2018-07-21T22:31:51.407Z,17.10
2018-07-21T22:34:24.676Z,17.10
2018-07-21T22:36:55.645Z,17.10
2018-07-21T22:39:25.418Z,17.10
2018-07-21T22:41:55.875Z,17.20
2018-07-21T22:44:23.907Z,17.10
2018-07-21T22:46:51.829Z,17.20
2018-07-21T22:49:19.817Z,17.20
2018-07-21T22:51:47.773Z,17.20
2018-07-21T22:54:15.869Z,17.20
2018-07-21T22:56:43.879Z,17.20
2018-07-21T22:59:11.830Z,17.10
2018-07-21T23:01:40.546Z,17.10
2018-07-21T23:04:08.476Z,17.00
2018-07-21T23:06:36.507Z,17.00
2018-07-21T23:09:06.218Z,16.90
2018-07-21T23:11:34.192Z,16.90
2018-07-21T23:14:02.185Z,16.90
2018-07-21T23:16:30.161Z,16.90
2018-07-21T23:18:58.108Z,16.90
2018-07-21T23:21:26.248Z,16.90
2018-07-21T23:23:54.237Z,16.90
2018-07-21T23:26:22.193Z,16.90
2018-07-21T23:28:50.181Z,16.80
2018-07-21T23:31:18.128Z,16.80
2018-07-21T23:33:46.134Z,16.80
2018-07-21T23:36:14.101Z,16.80
2018-07-21T23:38:42.047Z,16.80
2018-07-21T23:41:10.078Z,16.70
2018-07-21T23:43:38.045Z,16.80
2018-07-21T23:46:06.028Z,16.70
2018-07-21T23:48:34.045Z,16.70
2018-07-21T23:51:02.049Z,16.70
2018-07-21T23:53:30.054Z,16.70
2018-07-21T23:55:57.991Z,16.80
2018-07-21T23:58:26.002Z,16.80
